sensor_id;sensor_type;location;lat;lon;timestamp;temperature;humidity
77519;DHT22;66629;47.346;19.038;2023-06-10T00:02:26;18.23;93.96
77519;DHT22;66629;47.346;19.038;2023-06-10T00:04:52;18.29;93.82
77519;DHT22;66629;47.346;19.038;2023-06-10T00:07:18;18.26;93.73
77519;DHT22;66629;47.346;19.038;2023-06-10T00:09:43;18.25;94.01
77519;DHT22;66629;47.346;19.038;2023-06-10T00:12:09;18.26;94.11
77519;DHT22;66629;47.346;19.038;2023-06-10T00:14:39;18.12;94.54
77519;DHT22;66629;47.346;19.038;2023-06-10T00:17:08;18.16;94.61
77519;DHT22;66629;47.346;19.038;2023-06-10T00:19:37;18.22;94.36
77519;DHT22;66629;47.346;19.038;2023-06-10T00:22:06;18.26;93.94
77519;DHT22;66629;47.346;19.038;2023-06-10T00:24:32;18.28;94.19
77519;DHT22;66629;47.346;19.038;2023-06-10T00:26:58;18.26;94.11
77519;DHT22;66629;47.346;19.038;2023-06-10T00:29:23;18.22;94.34
77519;DHT22;66629;47.346;19.038;2023-06-10T00:31:48;18.21;94.68
77519;DHT22;66629;47.346;19.038;2023-06-10T00:34:14;18.13;95.04
77519;DHT22;66629;47.346;19.038;2023-06-10T00:36:39;18.15;95.03
77519;DHT22;66629;47.346;19.038;2023-06-10T00:39:05;18.10;95.04
77519;DHT22;66629;47.346;19.038;2023-06-10T00:41:31;18.02;95.62
77519;DHT22;66629;47.346;19.038;2023-06-10T00:43:58;18.06;95.70
77519;DHT22;66629;47.346;19.038;2023-06-10T00:46:24;18.13;95.23
77519;DHT22;66629;47.346;19.038;2023-06-10T00:48:52;18.21;94.97
77519;DHT22;66629;47.346;19.038;2023-06-10T00:51:18;18.25;94.76
77519;DHT22;66629;47.346;19.038;2023-06-10T00:53:44;18.29;94.97
77519;DHT22;66629;47.346;19.038;2023-06-10T00:56:10;18.32;94.69
77519;DHT22;66629;47.346;19.038;2023-06-10T00:58:36;18.32;94.78
77519;DHT22;66629;47.346;19.038;2023-06-10T01:01:01;18.33;94.78
77519;DHT22;66629;47.346;19.038;2023-06-10T01:03:27;18.39;95.04
77519;DHT22;66629;47.346;19.038;2023-06-10T01:06:14;18.36;95.02
77519;DHT22;66629;47.346;19.038;2023-06-10T01:11:18;18.26;95.31
77519;DHT22;66629;47.346;19.038;2023-06-10T01:13:45;18.22;95.20
77519;DHT22;66629;47.346;19.038;2023-06-10T01:16:11;18.15;95.50
77519;DHT22;66629;47.346;19.038;2023-06-10T01:18:37;17.97;96.35
77519;DHT22;66629;47.346;19.038;2023-06-10T01:21:03;17.98;96.64
77519;DHT22;66629;47.346;19.038;2023-06-10T01:23:29;17.98;97.03
77519;DHT22;66629;47.346;19.038;2023-06-10T01:26:01;17.97;96.82
77519;DHT22;66629;47.346;19.038;2023-06-10T01:28:40;18.02;96.77
77519;DHT22;66629;47.346;19.038;2023-06-10T01:31:18;17.98;96.86
77519;DHT22;66629;47.346;19.038;2023-06-10T01:33:50;18.02;96.77
77519;DHT22;66629;47.346;19.038;2023-06-10T01:36:17;17.97;96.40
77519;DHT22;66629;47.346;19.038;2023-06-10T01:38:45;17.92;96.05
77519;DHT22;66629;47.346;19.038;2023-06-10T01:41:16;17.85;96.67
77519;DHT22;66629;47.346;19.038;2023-06-10T01:43:43;17.89;96.13
77519;DHT22;66629;47.346;19.038;2023-06-10T01:46:09;17.82;96.16
77519;DHT22;66629;47.346;19.038;2023-06-10T01:48:37;17.77;96.42
77519;DHT22;66629;47.346;19.038;2023-06-10T01:51:02;17.70;96.79
77519;DHT22;66629;47.346;19.038;2023-06-10T01:53:28;17.75;96.76
77519;DHT22;66629;47.346;19.038;2023-06-10T01:55:53;17.71;96.98
77519;DHT22;66629;47.346;19.038;2023-06-10T01:58:19;17.74;96.97
77519;DHT22;66629;47.346;19.038;2023-06-10T02:00:44;17.85;97.16
77519;DHT22;66629;47.346;19.038;2023-06-10T02:03:10;17.77;97.03
77519;DHT22;66629;47.346;19.038;2023-06-10T02:05:35;17.82;97.10
77519;DHT22;66629;47.346;19.038;2023-06-10T02:08:00;17.87;96.85
77519;DHT22;66629;47.346;19.038;2023-06-10T02:10:26;17.69;97.96
77519;DHT22;66629;47.346;19.038;2023-06-10T02:12:51;17.73;98.18
77519;DHT22;66629;47.346;19.038;2023-06-10T02:15:17;17.71;98.12
77519;DHT22;66629;47.346;19.038;2023-06-10T02:17:42;17.77;98.26
77519;DHT22;66629;47.346;19.038;2023-06-10T02:20:10;17.71;98.90
77519;DHT22;66629;47.346;19.038;2023-06-10T02:22:36;17.78;98.29
77519;DHT22;66629;47.346;19.038;2023-06-10T02:25:02;17.87;98.17
77519;DHT22;66629;47.346;19.038;2023-06-10T02:27:29;17.77;98.68
77519;DHT22;66629;47.346;19.038;2023-06-10T02:29:54;17.75;98.79
77519;DHT22;66629;47.346;19.038;2023-06-10T02:32:19;17.81;98.50
77519;DHT22;66629;47.346;19.038;2023-06-10T02:34:45;17.77;98.75
77519;DHT22;66629;47.346;19.038;2023-06-10T02:37:11;17.77;98.67
77519;DHT22;66629;47.346;19.038;2023-06-10T02:39:36;17.77;98.72
77519;DHT22;66629;47.346;19.038;2023-06-10T02:42:02;17.71;98.87
77519;DHT22;66629;47.346;19.038;2023-06-10T02:44:27;17.71;98.74
77519;DHT22;66629;47.346;19.038;2023-06-10T02:46:52;17.67;99.09
77519;DHT22;66629;47.346;19.038;2023-06-10T02:49:18;17.69;98.99
77519;DHT22;66629;47.346;19.038;2023-06-10T02:51:44;17.71;98.91
77519;DHT22;66629;47.346;19.038;2023-06-10T02:54:09;17.75;98.47
77519;DHT22;66629;47.346;19.038;2023-06-10T02:56:35;17.75;98.50
77519;DHT22;66629;47.346;19.038;2023-06-10T02:59:01;17.73;98.64
77519;DHT22;66629;47.346;19.038;2023-06-10T03:01:27;17.66;98.69
77519;DHT22;66629;47.346;19.038;2023-06-10T03:03:52;17.66;98.74
77519;DHT22;66629;47.346;19.038;2023-06-10T03:06:18;17.75;98.38
77519;DHT22;66629;47.346;19.038;2023-06-10T03:08:43;17.80;98.21
77519;DHT22;66629;47.346;19.038;2023-06-10T03:11:09;17.74;97.97
77519;DHT22;66629;47.346;19.038;2023-06-10T03:13:35;17.81;97.83
77519;DHT22;66629;47.346;19.038;2023-06-10T03:16:00;17.70;97.80
77519;DHT22;66629;47.346;19.038;2023-06-10T03:18:28;17.67;98.24
77519;DHT22;66629;47.346;19.038;2023-06-10T03:20:54;17.63;98.17
77519;DHT22;66629;47.346;19.038;2023-06-10T03:23:20;17.62;98.03
77519;DHT22;66629;47.346;19.038;2023-06-10T03:25:46;17.59;98.15
77519;DHT22;66629;47.346;19.038;2023-06-10T03:28:11;17.51;98.51
77519;DHT22;66629;47.346;19.038;2023-06-10T03:30:37;17.57;98.22
77519;DHT22;66629;47.346;19.038;2023-06-10T03:33:02;17.64;97.76
77519;DHT22;66629;47.346;19.038;2023-06-10T03:35:28;17.66;97.81
77519;DHT22;66629;47.346;19.038;2023-06-10T03:37:55;17.59;97.61
77519;DHT22;66629;47.346;19.038;2023-06-10T03:40:21;17.62;97.55
77519;DHT22;66629;47.346;19.038;2023-06-10T03:42:46;17.62;97.45
77519;DHT22;66629;47.346;19.038;2023-06-10T03:45:12;17.59;97.71
77519;DHT22;66629;47.346;19.038;2023-06-10T03:47:38;17.64;97.42
77519;DHT22;66629;47.346;19.038;2023-06-10T03:50:06;17.74;97.36
77519;DHT22;66629;47.346;19.038;2023-06-10T03:52:33;17.64;97.10
77519;DHT22;66629;47.346;19.038;2023-06-10T03:54:58;17.91;96.59
77519;DHT22;66629;47.346;19.038;2023-06-10T03:57:24;18.01;95.90
77519;DHT22;66629;47.346;19.038;2023-06-10T03:59:49;18.06;96.02
77519;DHT22;66629;47.346;19.038;2023-06-10T04:02:15;18.09;96.29
77519;DHT22;66629;47.346;19.038;2023-06-10T04:04:41;18.09;95.94
77519;DHT22;66629;47.346;19.038;2023-06-10T04:07:06;18.16;95.67
77519;DHT22;66629;47.346;19.038;2023-06-10T04:09:34;18.12;96.32
77519;DHT22;66629;47.346;19.038;2023-06-10T04:12:01;18.13;96.14
77519;DHT22;66629;47.346;19.038;2023-06-10T04:14:26;18.19;95.78
77519;DHT22;66629;47.346;19.038;2023-06-10T04:16:52;18.30;95.33
77519;DHT22;66629;47.346;19.038;2023-06-10T04:19:18;18.88;94.06
77519;DHT22;66629;47.346;19.038;2023-06-10T04:21:43;19.35;93.53
77519;DHT22;66629;47.346;19.038;2023-06-10T04:24:09;19.71;90.13
77519;DHT22;66629;47.346;19.038;2023-06-10T04:26:37;19.69;91.04
77519;DHT22;66629;47.346;19.038;2023-06-10T04:29:03;19.48;90.74
77519;DHT22;66629;47.346;19.038;2023-06-10T04:31:29;19.57;91.17
77519;DHT22;66629;47.346;19.038;2023-06-10T04:33:54;19.47;90.79
77519;DHT22;66629;47.346;19.038;2023-06-10T04:36:20;19.75;91.20
77519;DHT22;66629;47.346;19.038;2023-06-10T04:38:45;19.90;90.28
77519;DHT22;66629;47.346;19.038;2023-06-10T04:41:11;20.37;89.23
77519;DHT22;66629;47.346;19.038;2023-06-10T04:43:38;20.52;87.02
77519;DHT22;66629;47.346;19.038;2023-06-10T04:46:03;20.64;87.37
77519;DHT22;66629;47.346;19.038;2023-06-10T04:48:29;20.40;87.78
77519;DHT22;66629;47.346;19.038;2023-06-10T04:50:54;20.90;86.75
77519;DHT22;66629;47.346;19.038;2023-06-10T04:53:21;21.31;85.79
77519;DHT22;66629;47.346;19.038;2023-06-10T04:55:47;21.12;84.60
77519;DHT22;66629;47.346;19.038;2023-06-10T04:58:14;21.14;85.07
77519;DHT22;66629;47.346;19.038;2023-06-10T05:00:39;20.48;86.75
77519;DHT22;66629;47.346;19.038;2023-06-10T05:03:05;20.61;87.03
77519;DHT22;66629;47.346;19.038;2023-06-10T05:05:30;20.25;87.50
77519;DHT22;66629;47.346;19.038;2023-06-10T05:07:56;20.48;87.12
77519;DHT22;66629;47.346;19.038;2023-06-10T05:10:21;20.66;86.19
77519;DHT22;66629;47.346;19.038;2023-06-10T05:12:46;20.44;86.05
77519;DHT22;66629;47.346;19.038;2023-06-10T05:15:12;20.34;87.47
77519;DHT22;66629;47.346;19.038;2023-06-10T05:17:37;20.28;86.52
77519;DHT22;66629;47.346;19.038;2023-06-10T05:20:03;19.85;88.38
77519;DHT22;66629;47.346;19.038;2023-06-10T05:22:29;20.20;86.22
77519;DHT22;66629;47.346;19.038;2023-06-10T05:24:54;20.38;86.41
77519;DHT22;66629;47.346;19.038;2023-06-10T05:27:20;20.31;86.47
77519;DHT22;66629;47.346;19.038;2023-06-10T05:29:46;20.07;87.79
77519;DHT22;66629;47.346;19.038;2023-06-10T05:32:11;20.38;86.66
77519;DHT22;66629;47.346;19.038;2023-06-10T05:34:37;19.94;86.52
77519;DHT22;66629;47.346;19.038;2023-06-10T05:37:03;19.58;88.30
77519;DHT22;66629;47.346;19.038;2023-06-10T05:39:28;19.64;88.25
77519;DHT22;66629;47.346;19.038;2023-06-10T05:41:53;19.50;88.29
77519;DHT22;66629;47.346;19.038;2023-06-10T05:44:19;19.58;89.10
77519;DHT22;66629;47.346;19.038;2023-06-10T05:46:44;19.43;88.46
77519;DHT22;66629;47.346;19.038;2023-06-10T05:49:10;19.31;88.82
77519;DHT22;66629;47.346;19.038;2023-06-10T05:51:35;19.40;88.33
77519;DHT22;66629;47.346;19.038;2023-06-10T05:54:02;19.64;87.44
77519;DHT22;66629;47.346;19.038;2023-06-10T05:56:27;19.89;87.34
77519;DHT22;66629;47.346;19.038;2023-06-10T05:58:54;19.86;87.56
77519;DHT22;66629;47.346;19.038;2023-06-10T06:01:20;20.03;87.74
77519;DHT22;66629;47.346;19.038;2023-06-10T06:03:45;19.99;86.86
77519;DHT22;66629;47.346;19.038;2023-06-10T06:06:11;19.96;86.54
77519;DHT22;66629;47.346;19.038;2023-06-10T06:08:36;19.92;86.62
77519;DHT22;66629;47.346;19.038;2023-06-10T06:11:02;19.64;87.82
77519;DHT22;66629;47.346;19.038;2023-06-10T06:13:27;19.68;87.59
77519;DHT22;66629;47.346;19.038;2023-06-10T06:15:53;19.92;87.52
77519;DHT22;66629;47.346;19.038;2023-06-10T06:18:18;20.05;86.71
77519;DHT22;66629;47.346;19.038;2023-06-10T06:20:44;20.09;84.63
77519;DHT22;66629;47.346;19.038;2023-06-10T06:23:09;20.56;85.47
77519;DHT22;66629;47.346;19.038;2023-06-10T06:25:36;20.72;84.15
77519;DHT22;66629;47.346;19.038;2023-06-10T06:28:07;20.49;84.98
77519;DHT22;66629;47.346;19.038;2023-06-10T06:30:34;20.96;83.58
77519;DHT22;66629;47.346;19.038;2023-06-10T06:32:59;21.08;83.16
77519;DHT22;66629;47.346;19.038;2023-06-10T06:35:25;20.83;83.31
77519;DHT22;66629;47.346;19.038;2023-06-10T06:37:50;20.68;83.69
77519;DHT22;66629;47.346;19.038;2023-06-10T06:40:16;20.80;84.23
77519;DHT22;66629;47.346;19.038;2023-06-10T06:42:41;20.65;83.50
77519;DHT22;66629;47.346;19.038;2023-06-10T06:45:07;20.66;83.48
77519;DHT22;66629;47.346;19.038;2023-06-10T06:47:32;20.59;84.29
77519;DHT22;66629;47.346;19.038;2023-06-10T06:49:58;21.45;81.58
77519;DHT22;66629;47.346;19.038;2023-06-10T06:52:23;21.38;80.88
77519;DHT22;66629;47.346;19.038;2023-06-10T06:54:48;22.38;79.55
77519;DHT22;66629;47.346;19.038;2023-06-10T06:57:14;22.14;78.67
77519;DHT22;66629;47.346;19.038;2023-06-10T06:59:40;21.82;79.10
77519;DHT22;66629;47.346;19.038;2023-06-10T07:02:05;22.25;79.10
77519;DHT22;66629;47.346;19.038;2023-06-10T07:04:31;21.96;79.91
77519;DHT22;66629;47.346;19.038;2023-06-10T07:06:56;22.05;79.83
77519;DHT22;66629;47.346;19.038;2023-06-10T07:09:22;21.83;79.41
77519;DHT22;66629;47.346;19.038;2023-06-10T07:11:47;21.55;81.31
77519;DHT22;66629;47.346;19.038;2023-06-10T07:14:13;21.91;79.75
77519;DHT22;66629;47.346;19.038;2023-06-10T07:16:38;21.93;78.43
77519;DHT22;66629;47.346;19.038;2023-06-10T07:19:04;22.32;77.81
77519;DHT22;66629;47.346;19.038;2023-06-10T07:21:33;23.04;75.75
77519;DHT22;66629;47.346;19.038;2023-06-10T07:23:59;23.20;75.14
77519;DHT22;66629;47.346;19.038;2023-06-10T07:26:24;22.18;76.39
77519;DHT22;66629;47.346;19.038;2023-06-10T07:28:51;22.71;77.56
77519;DHT22;66629;47.346;19.038;2023-06-10T07:31:17;22.11;78.52
77519;DHT22;66629;47.346;19.038;2023-06-10T07:33:42;22.35;77.45
77519;DHT22;66629;47.346;19.038;2023-06-10T07:36:09;22.73;77.72
77519;DHT22;66629;47.346;19.038;2023-06-10T07:38:34;21.46;78.41
77519;DHT22;66629;47.346;19.038;2023-06-10T07:41:00;21.94;78.67
77519;DHT22;66629;47.346;19.038;2023-06-10T07:43:25;22.00;77.59
77519;DHT22;66629;47.346;19.038;2023-06-10T07:45:52;21.59;79.01
77519;DHT22;66629;47.346;19.038;2023-06-10T07:48:17;22.41;77.71
77519;DHT22;66629;47.346;19.038;2023-06-10T07:50:43;22.25;78.61
77519;DHT22;66629;47.346;19.038;2023-06-10T07:53:08;23.20;76.04
77519;DHT22;66629;47.346;19.038;2023-06-10T07:55:34;23.25;75.64
77519;DHT22;66629;47.346;19.038;2023-06-10T07:57:59;23.57;73.42
77519;DHT22;66629;47.346;19.038;2023-06-10T08:00:25;23.75;73.14
77519;DHT22;66629;47.346;19.038;2023-06-10T08:02:50;24.12;71.09
77519;DHT22;66629;47.346;19.038;2023-06-10T08:05:16;23.86;72.65
77519;DHT22;66629;47.346;19.038;2023-06-10T08:07:42;23.74;73.01
77519;DHT22;66629;47.346;19.038;2023-06-10T08:10:07;24.09;70.50
77519;DHT22;66629;47.346;19.038;2023-06-10T08:12:34;24.67;69.67
77519;DHT22;66629;47.346;19.038;2023-06-10T08:14:59;24.72;68.39
77519;DHT22;66629;47.346;19.038;2023-06-10T08:17:25;24.86;69.81
77519;DHT22;66629;47.346;19.038;2023-06-10T08:19:51;24.89;70.67
77519;DHT22;66629;47.346;19.038;2023-06-10T08:22:16;24.75;68.93
77519;DHT22;66629;47.346;19.038;2023-06-10T08:24:41;25.58;68.59
77519;DHT22;66629;47.346;19.038;2023-06-10T08:27:07;25.61;66.65
77519;DHT22;66629;47.346;19.038;2023-06-10T08:29:33;25.03;68.53
77519;DHT22;66629;47.346;19.038;2023-06-10T08:31:58;24.25;70.00
77519;DHT22;66629;47.346;19.038;2023-06-10T08:34:24;24.22;71.11
77519;DHT22;66629;47.346;19.038;2023-06-10T08:36:49;24.16;69.68
77519;DHT22;66629;47.346;19.038;2023-06-10T08:39:20;24.50;69.35
77519;DHT22;66629;47.346;19.038;2023-06-10T08:44:36;24.61;69.33
77519;DHT22;66629;47.346;19.038;2023-06-10T08:47:06;24.89;70.79
77519;DHT22;66629;47.346;19.038;2023-06-10T08:49:38;25.06;67.66
77519;DHT22;66629;47.346;19.038;2023-06-10T08:52:07;24.33;68.80
77519;DHT22;66629;47.346;19.038;2023-06-10T08:54:33;24.10;70.61
77519;DHT22;66629;47.346;19.038;2023-06-10T08:57:05;24.75;67.85
77519;DHT22;66629;47.346;19.038;2023-06-10T08:59:33;24.95;68.83
77519;DHT22;66629;47.346;19.038;2023-06-10T09:01:59;25.68;67.31
77519;DHT22;66629;47.346;19.038;2023-06-10T09:04:26;25.90;68.69
77519;DHT22;66629;47.346;19.038;2023-06-10T09:06:52;25.90;67.66
77519;DHT22;66629;47.346;19.038;2023-06-10T09:09:19;26.03;66.43
77519;DHT22;66629;47.346;19.038;2023-06-10T09:11:47;26.48;64.27
77519;DHT22;66629;47.346;19.038;2023-06-10T09:14:13;26.20;64.05
77519;DHT22;66629;47.346;19.038;2023-06-10T09:16:39;26.90;64.38
77519;DHT22;66629;47.346;19.038;2023-06-10T09:19:05;26.51;64.72
77519;DHT22;66629;47.346;19.038;2023-06-10T09:21:33;25.08;67.26
77519;DHT22;66629;47.346;19.038;2023-06-10T09:24:01;24.44;69.34
77519;DHT22;66629;47.346;19.038;2023-06-10T09:26:29;24.72;68.75
77519;DHT22;66629;47.346;19.038;2023-06-10T09:29:13;25.47;66.02
77519;DHT22;66629;47.346;19.038;2023-06-10T09:31:39;25.06;65.18
77519;DHT22;66629;47.346;19.038;2023-06-10T09:34:13;24.71;66.61
77519;DHT22;66629;47.346;19.038;2023-06-10T09:36:39;24.71;67.34
77519;DHT22;66629;47.346;19.038;2023-06-10T09:39:13;25.47;66.33
77519;DHT22;66629;47.346;19.038;2023-06-10T09:41:41;25.34;66.84
77519;DHT22;66629;47.346;19.038;2023-06-10T09:44:19;25.60;66.71
77519;DHT22;66629;47.346;19.038;2023-06-10T09:46:46;26.28;63.74
77519;DHT22;66629;47.346;19.038;2023-06-10T09:49:12;26.38;62.80
77519;DHT22;66629;47.346;19.038;2023-06-10T09:51:37;26.16;62.84
77519;DHT22;66629;47.346;19.038;2023-06-10T09:54:03;26.54;64.74
77519;DHT22;66629;47.346;19.038;2023-06-10T09:56:33;25.92;64.90
77519;DHT22;66629;47.346;19.038;2023-06-10T09:58:59;25.79;66.25
77519;DHT22;66629;47.346;19.038;2023-06-10T10:01:24;25.24;66.92
77519;DHT22;66629;47.346;19.038;2023-06-10T10:03:50;24.88;68.31
77519;DHT22;66629;47.346;19.038;2023-06-10T10:06:17;25.30;68.05
77519;DHT22;66629;47.346;19.038;2023-06-10T10:08:45;25.05;67.09
77519;DHT22;66629;47.346;19.038;2023-06-10T10:11:11;24.08;69.93
77519;DHT22;66629;47.346;19.038;2023-06-10T10:13:37;24.60;70.86
77519;DHT22;66629;47.346;19.038;2023-06-10T10:16:15;25.50;69.27
77519;DHT22;66629;47.346;19.038;2023-06-10T10:18:45;25.69;68.16
77519;DHT22;66629;47.346;19.038;2023-06-10T10:21:12;26.24;66.93
77519;DHT22;66629;47.346;19.038;2023-06-10T10:26:26;25.71;65.09
77519;DHT22;66629;47.346;19.038;2023-06-10T10:29:10;25.78;63.29
77519;DHT22;66629;47.346;19.038;2023-06-10T10:31:36;26.14;62.92
77519;DHT22;66629;47.346;19.038;2023-06-10T10:34:06;27.15;61.45
77519;DHT22;66629;47.346;19.038;2023-06-10T10:36:34;26.58;60.13
77519;DHT22;66629;47.346;19.038;2023-06-10T10:39:01;26.80;59.51
77519;DHT22;66629;47.346;19.038;2023-06-10T10:41:30;26.52;58.85
77519;DHT22;66629;47.346;19.038;2023-06-10T10:43:55;26.34;60.77
77519;DHT22;66629;47.346;19.038;2023-06-10T10:46:21;26.41;61.66
77519;DHT22;66629;47.346;19.038;2023-06-10T10:48:52;25.81;61.84
77519;DHT22;66629;47.346;19.038;2023-06-10T10:51:18;25.68;62.11
77519;DHT22;66629;47.346;19.038;2023-06-10T10:53:43;25.45;63.77
77519;DHT22;66629;47.346;19.038;2023-06-10T10:56:14;24.82;64.74
77519;DHT22;66629;47.346;19.038;2023-06-10T10:58:41;25.02;64.38
77519;DHT22;66629;47.346;19.038;2023-06-10T11:01:13;24.19;65.38
77519;DHT22;66629;47.346;19.038;2023-06-10T11:03:46;24.53;66.91
77519;DHT22;66629;47.346;19.038;2023-06-10T11:06:16;24.61;64.18
77519;DHT22;66629;47.346;19.038;2023-06-10T11:11:27;24.81;64.96
77519;DHT22;66629;47.346;19.038;2023-06-10T11:14:06;24.65;65.10
77519;DHT22;66629;47.346;19.038;2023-06-10T11:16:41;24.68;66.50
77519;DHT22;66629;47.346;19.038;2023-06-10T11:19:07;24.82;66.87
77519;DHT22;66629;47.346;19.038;2023-06-10T11:21:45;24.88;65.01
77519;DHT22;66629;47.346;19.038;2023-06-10T11:24:22;25.61;63.10
77519;DHT22;66629;47.346;19.038;2023-06-10T11:26:48;25.90;63.18
77519;DHT22;66629;47.346;19.038;2023-06-10T11:29:14;25.85;62.37
77519;DHT22;66629;47.346;19.038;2023-06-10T11:34:07;26.04;61.90
77519;DHT22;66629;47.346;19.038;2023-06-10T11:36:40;25.69;62.15
77519;DHT22;66629;47.346;19.038;2023-06-10T11:39:08;25.67;63.28
77519;DHT22;66629;47.346;19.038;2023-06-10T11:41:35;25.41;63.48
77519;DHT22;66629;47.346;19.038;2023-06-10T11:44:02;25.61;64.57
77519;DHT22;66629;47.346;19.038;2023-06-10T11:46:28;26.10;64.85
77519;DHT22;66629;47.346;19.038;2023-06-10T11:48:57;25.79;65.30
77519;DHT22;66629;47.346;19.038;2023-06-10T11:51:32;26.14;64.88
77519;DHT22;66629;47.346;19.038;2023-06-10T11:53:57;26.52;65.48
77519;DHT22;66629;47.346;19.038;2023-06-10T11:56:25;26.63;63.30
77519;DHT22;66629;47.346;19.038;2023-06-10T11:58:55;26.69;63.29
77519;DHT22;66629;47.346;19.038;2023-06-10T12:01:26;26.58;62.67
77519;DHT22;66629;47.346;19.038;2023-06-10T12:06:23;27.04;64.88
77519;DHT22;66629;47.346;19.038;2023-06-10T12:08:49;27.53;62.75
77519;DHT22;66629;47.346;19.038;2023-06-10T12:11:14;27.80;62.97
77519;DHT22;66629;47.346;19.038;2023-06-10T12:13:46;27.73;58.93
77519;DHT22;66629;47.346;19.038;2023-06-10T12:16:13;27.30;61.57
77519;DHT22;66629;47.346;19.038;2023-06-10T12:18:39;27.82;63.21
77519;DHT22;66629;47.346;19.038;2023-06-10T12:21:24;27.85;61.53
77519;DHT22;66629;47.346;19.038;2023-06-10T12:24:07;27.93;58.37
77519;DHT22;66629;47.346;19.038;2023-06-10T12:26:43;27.37;59.33
77519;DHT22;66629;47.346;19.038;2023-06-10T12:29:23;26.49;59.57
77519;DHT22;66629;47.346;19.038;2023-06-10T12:32:02;26.49;59.84
77519;DHT22;66629;47.346;19.038;2023-06-10T12:34:37;27.27;59.18
77519;DHT22;66629;47.346;19.038;2023-06-10T12:37:05;27.27;60.64
77519;DHT22;66629;47.346;19.038;2023-06-10T12:39:33;27.08;59.96
77519;DHT22;66629;47.346;19.038;2023-06-10T12:41:59;26.72;59.38
77519;DHT22;66629;47.346;19.038;2023-06-10T12:44:35;27.17;57.84
77519;DHT22;66629;47.346;19.038;2023-06-10T12:47:07;26.96;57.67
77519;DHT22;66629;47.346;19.038;2023-06-10T12:49:34;27.20;57.63
77519;DHT22;66629;47.346;19.038;2023-06-10T12:52:00;27.15;57.76
77519;DHT22;66629;47.346;19.038;2023-06-10T12:54:26;27.74;57.00
77519;DHT22;66629;47.346;19.038;2023-06-10T12:56:51;27.98;58.34
77519;DHT22;66629;47.346;19.038;2023-06-10T12:59:18;27.35;58.88
77519;DHT22;66629;47.346;19.038;2023-06-10T13:01:44;27.00;59.32
77519;DHT22;66629;47.346;19.038;2023-06-10T13:04:15;26.65;61.17
77519;DHT22;66629;47.346;19.038;2023-06-10T13:06:41;26.45;61.86
77519;DHT22;66629;47.346;19.038;2023-06-10T13:09:06;26.30;61.31
77519;DHT22;66629;47.346;19.038;2023-06-10T13:11:32;25.72;62.29
77519;DHT22;66629;47.346;19.038;2023-06-10T13:13:58;25.99;62.61
77519;DHT22;66629;47.346;19.038;2023-06-10T13:16:23;26.31;62.23
77519;DHT22;66629;47.346;19.038;2023-06-10T13:18:49;26.38;61.58
77519;DHT22;66629;47.346;19.038;2023-06-10T13:21:14;26.34;63.43
77519;DHT22;66629;47.346;19.038;2023-06-10T13:23:40;26.17;60.34
77519;DHT22;66629;47.346;19.038;2023-06-10T13:26:05;26.13;62.24
77519;DHT22;66629;47.346;19.038;2023-06-10T13:28:31;26.17;62.56
77519;DHT22;66629;47.346;19.038;2023-06-10T13:30:57;26.43;60.69
77519;DHT22;66629;47.346;19.038;2023-06-10T13:33:22;26.71;59.87
77519;DHT22;66629;47.346;19.038;2023-06-10T13:35:47;27.13;60.05
77519;DHT22;66629;47.346;19.038;2023-06-10T13:38:13;27.26;57.90
77519;DHT22;66629;47.346;19.038;2023-06-10T13:40:38;27.41;57.96
77519;DHT22;66629;47.346;19.038;2023-06-10T13:43:04;27.69;57.94
77519;DHT22;66629;47.346;19.038;2023-06-10T13:45:30;27.41;58.41
77519;DHT22;66629;47.346;19.038;2023-06-10T13:47:55;26.87;59.04
77519;DHT22;66629;47.346;19.038;2023-06-10T13:50:21;26.35;60.53
77519;DHT22;66629;47.346;19.038;2023-06-10T13:52:46;26.31;61.26
77519;DHT22;66629;47.346;19.038;2023-06-10T13:55:12;25.81;65.46
77519;DHT22;66629;47.346;19.038;2023-06-10T13:57:37;25.12;66.30
77519;DHT22;66629;47.346;19.038;2023-06-10T14:00:03;25.13;67.08
77519;DHT22;66629;47.346;19.038;2023-06-10T14:02:28;24.93;69.09
77519;DHT22;66629;47.346;19.038;2023-06-10T14:04:54;24.99;73.26
77519;DHT22;66629;47.346;19.038;2023-06-10T14:07:19;24.61;72.59
77519;DHT22;66629;47.346;19.038;2023-06-10T14:09:45;24.61;75.07
77519;DHT22;66629;47.346;19.038;2023-06-10T14:12:10;24.54;70.89
77519;DHT22;66629;47.346;19.038;2023-06-10T14:14:36;24.61;73.92
77519;DHT22;66629;47.346;19.038;2023-06-10T14:17:02;24.68;67.53
77519;DHT22;66629;47.346;19.038;2023-06-10T14:19:28;24.20;70.30
77519;DHT22;66629;47.346;19.038;2023-06-10T14:21:54;23.92;71.17
77519;DHT22;66629;47.346;19.038;2023-06-10T14:24:20;23.77;70.64
77519;DHT22;66629;47.346;19.038;2023-06-10T14:26:46;23.86;70.38
77519;DHT22;66629;47.346;19.038;2023-06-10T14:29:11;23.74;70.89
77519;DHT22;66629;47.346;19.038;2023-06-10T14:31:39;23.81;70.62
77519;DHT22;66629;47.346;19.038;2023-06-10T14:34:05;23.78;70.90
77519;DHT22;66629;47.346;19.038;2023-06-10T14:36:33;23.64;71.28
77519;DHT22;66629;47.346;19.038;2023-06-10T14:38:58;23.56;72.12
77519;DHT22;66629;47.346;19.038;2023-06-10T14:41:23;23.46;72.64
77519;DHT22;66629;47.346;19.038;2023-06-10T14:43:50;23.59;72.90
77519;DHT22;66629;47.346;19.038;2023-06-10T14:46:15;23.53;71.99
77519;DHT22;66629;47.346;19.038;2023-06-10T14:48:41;23.41;72.53
77519;DHT22;66629;47.346;19.038;2023-06-10T14:51:06;23.52;72.28
77519;DHT22;66629;47.346;19.038;2023-06-10T14:53:32;23.45;71.65
77519;DHT22;66629;47.346;19.038;2023-06-10T14:55:57;23.53;71.94
77519;DHT22;66629;47.346;19.038;2023-06-10T14:58:22;23.53;73.13
77519;DHT22;66629;47.346;19.038;2023-06-10T15:00:48;23.42;72.97
77519;DHT22;66629;47.346;19.038;2023-06-10T15:03:13;23.42;74.61
77519;DHT22;66629;47.346;19.038;2023-06-10T15:05:39;23.33;74.49
77519;DHT22;66629;47.346;19.038;2023-06-10T15:08:04;23.33;73.62
77519;DHT22;66629;47.346;19.038;2023-06-10T15:10:30;23.36;73.36
77519;DHT22;66629;47.346;19.038;2023-06-10T15:12:55;23.23;73.38
77519;DHT22;66629;47.346;19.038;2023-06-10T15:15:22;23.29;73.40
77519;DHT22;66629;47.346;19.038;2023-06-10T15:17:48;23.29;74.12
77519;DHT22;66629;47.346;19.038;2023-06-10T15:20:14;23.39;73.77
77519;DHT22;66629;47.346;19.038;2023-06-10T15:22:39;23.36;73.67
77519;DHT22;66629;47.346;19.038;2023-06-10T15:25:05;23.39;73.01
77519;DHT22;66629;47.346;19.038;2023-06-10T15:27:31;23.42;73.12
77519;DHT22;66629;47.346;19.038;2023-06-10T15:29:56;23.41;73.00